sensor_id;sensor_type;location;lat;lon;timestamp;P1;durP1;ratioP1;P2;durP2;ratioP2
68888;SDS011;55930;47.412;8.790;2023-01-08T00:02:31;4.30;;;2.70;;
68888;SDS011;55930;47.412;8.790;2023-01-08T00:05:54;5.13;;;3.05;;
68888;SDS011;55930;47.412;8.790;2023-01-08T00:09:14;4.30;;;2.40;;
68888;SDS011;55930;47.412;8.790;2023-01-08T00:12:35;3.83;;;2.93;;
68888;SDS011;55930;47.412;8.790;2023-01-08T00:15:56;3.73;;;2.60;;
68888;SDS011;55930;47.412;8.790;2023-01-08T00:19:16;3.57;;;2.43;;
68888;SDS011;55930;47.412;8.790;2023-01-08T00:22:39;3.00;;;2.30;;
68888;SDS011;55930;47.412;8.790;2023-01-08T00:26:03;3.90;;;2.47;;
68888;SDS011;55930;47.412;8.790;2023-01-08T00:29:26;3.28;;;2.42;;
68888;SDS011;55930;47.412;8.790;2023-01-08T00:32:48;3.90;;;2.70;;
68888;SDS011;55930;47.412;8.790;2023-01-08T00:36:10;3.42;;;2.40;;
68888;SDS011;55930;47.412;8.790;2023-01-08T00:39:32;3.47;;;2.38;;
68888;SDS011;55930;47.412;8.790;2023-01-08T00:42:55;3.45;;;2.50;;
68888;SDS011;55930;47.412;8.790;2023-01-08T00:46:15;3.33;;;2.40;;
68888;SDS011;55930;47.412;8.790;2023-01-08T00:49:35;5.73;;;3.20;;
68888;SDS011;55930;47.412;8.790;2023-01-08T00:52:58;5.27;;;3.10;;
68888;SDS011;55930;47.412;8.790;2023-01-08T00:56:19;3.47;;;2.72;;
68888;SDS011;55930;47.412;8.790;2023-01-08T00:59:40;4.43;;;2.90;;
68888;SDS011;55930;47.412;8.790;2023-01-08T01:03:00;5.47;;;2.40;;
68888;SDS011;55930;47.412;8.790;2023-01-08T01:06:20;6.90;;;3.23;;
68888;SDS011;55930;47.412;8.790;2023-01-08T01:09:41;5.17;;;2.80;;
68888;SDS011;55930;47.412;8.790;2023-01-08T01:13:01;5.77;;;2.80;;
68888;SDS011;55930;47.412;8.790;2023-01-08T01:16:22;4.40;;;3.00;;
68888;SDS011;55930;47.412;8.790;2023-01-08T01:19:43;5.28;;;2.80;;
68888;SDS011;55930;47.412;8.790;2023-01-08T01:23:05;4.22;;;2.80;;
68888;SDS011;55930;47.412;8.790;2023-01-08T01:26:26;5.90;;;2.90;;
68888;SDS011;55930;47.412;8.790;2023-01-08T01:29:47;9.43;;;3.13;;
68888;SDS011;55930;47.412;8.790;2023-01-08T01:33:07;4.30;;;2.70;;
68888;SDS011;55930;47.412;8.790;2023-01-08T01:36:28;4.93;;;3.17;;
68888;SDS011;55930;47.412;8.790;2023-01-08T01:39:48;6.80;;;3.30;;
68888;SDS011;55930;47.412;8.790;2023-01-08T01:43:11;3.63;;;2.60;;
68888;SDS011;55930;47.412;8.790;2023-01-08T01:46:46;4.20;;;3.25;;
68888;SDS011;55930;47.412;8.790;2023-01-08T01:50:26;6.10;;;3.53;;
68888;SDS011;55930;47.412;8.790;2023-01-08T01:53:52;5.78;;;3.50;;
68888;SDS011;55930;47.412;8.790;2023-01-08T01:57:12;4.70;;;3.60;;
68888;SDS011;55930;47.412;8.790;2023-01-08T02:00:33;5.93;;;3.30;;
68888;SDS011;55930;47.412;8.790;2023-01-08T02:03:54;4.15;;;3.20;;
68888;SDS011;55930;47.412;8.790;2023-01-08T02:07:23;4.80;;;3.50;;
68888;SDS011;55930;47.412;8.790;2023-01-08T02:18:47;5.55;;;2.95;;
68888;SDS011;55930;47.412;8.790;2023-01-08T02:26:02;4.28;;;3.08;;
68888;SDS011;55930;47.412;8.790;2023-01-08T02:29:24;5.57;;;3.40;;
68888;SDS011;55930;47.412;8.790;2023-01-08T02:32:48;5.25;;;2.80;;
68888;SDS011;55930;47.412;8.790;2023-01-08T02:36:54;5.23;;;2.70;;
68888;SDS011;55930;47.412;8.790;2023-01-08T02:40:20;3.78;;;2.65;;
68888;SDS011;55930;47.412;8.790;2023-01-08T02:43:51;5.85;;;2.97;;
68888;SDS011;55930;47.412;8.790;2023-01-08T02:47:27;7.13;;;3.03;;
68888;SDS011;55930;47.412;8.790;2023-01-08T02:51:05;4.55;;;2.83;;
68888;SDS011;55930;47.412;8.790;2023-01-08T02:54:31;3.65;;;2.95;;
68888;SDS011;55930;47.412;8.790;2023-01-08T02:57:54;4.50;;;2.78;;
68888;SDS011;55930;47.412;8.790;2023-01-08T03:01:15;3.45;;;2.70;;
68888;SDS011;55930;47.412;8.790;2023-01-08T03:04:42;5.80;;;3.55;;
68888;SDS011;55930;47.412;8.790;2023-01-08T03:08:08;4.18;;;3.15;;
68888;SDS011;55930;47.412;8.790;2023-01-08T03:11:43;3.88;;;3.00;;
68888;SDS011;55930;47.412;8.790;2023-01-08T03:15:12;5.22;;;3.63;;
68888;SDS011;55930;47.412;8.790;2023-01-08T03:18:40;4.40;;;3.00;;
68888;SDS011;55930;47.412;8.790;2023-01-08T03:22:10;6.57;;;3.38;;
68888;SDS011;55930;47.412;8.790;2023-01-08T03:25:37;6.95;;;3.47;;
68888;SDS011;55930;47.412;8.790;2023-01-08T03:29:00;4.78;;;3.20;;
68888;SDS011;55930;47.412;8.790;2023-01-08T03:32:24;4.47;;;3.30;;
68888;SDS011;55930;47.412;8.790;2023-01-08T03:35:49;4.20;;;2.92;;
68888;SDS011;55930;47.412;8.790;2023-01-08T03:39:16;4.47;;;2.95;;
68888;SDS011;55930;47.412;8.790;2023-01-08T03:42:41;4.13;;;3.00;;
68888;SDS011;55930;47.412;8.790;2023-01-08T03:46:06;4.20;;;2.92;;
68888;SDS011;55930;47.412;8.790;2023-01-08T03:49:32;4.57;;;2.80;;
68888;SDS011;55930;47.412;8.790;2023-01-08T03:52:54;4.70;;;3.00;;
68888;SDS011;55930;47.412;8.790;2023-01-08T03:56:14;4.57;;;3.10;;
68888;SDS011;55930;47.412;8.790;2023-01-08T03:59:35;4.10;;;2.50;;
68888;SDS011;55930;47.412;8.790;2023-01-08T04:02:55;3.87;;;2.87;;
68888;SDS011;55930;47.412;8.790;2023-01-08T04:06:15;4.20;;;3.00;;
68888;SDS011;55930;47.412;8.790;2023-01-08T04:09:36;4.77;;;2.83;;
68888;SDS011;55930;47.412;8.790;2023-01-08T04:12:56;4.03;;;2.70;;
68888;SDS011;55930;47.412;8.790;2023-01-08T04:16:17;6.00;;;3.00;;
68888;SDS011;55930;47.412;8.790;2023-01-08T04:19:37;4.20;;;2.93;;
68888;SDS011;55930;47.412;8.790;2023-01-08T04:22:58;5.97;;;2.60;;
68888;SDS011;55930;47.412;8.790;2023-01-08T04:26:18;4.70;;;3.03;;
68888;SDS011;55930;47.412;8.790;2023-01-08T04:29:39;4.47;;;3.17;;
68888;SDS011;55930;47.412;8.790;2023-01-08T04:32:59;4.13;;;2.67;;
68888;SDS011;55930;47.412;8.790;2023-01-08T04:36:20;4.33;;;2.90;;
68888;SDS011;55930;47.412;8.790;2023-01-08T04:39:42;4.68;;;3.15;;
68888;SDS011;55930;47.412;8.790;2023-01-08T04:43:02;5.67;;;3.20;;
68888;SDS011;55930;47.412;8.790;2023-01-08T04:46:23;3.83;;;2.77;;
68888;SDS011;55930;47.412;8.790;2023-01-08T04:49:43;4.07;;;3.07;;
68888;SDS011;55930;47.412;8.790;2023-01-08T04:53:04;5.23;;;3.00;;
68888;SDS011;55930;47.412;8.790;2023-01-08T04:56:24;4.70;;;3.13;;
68888;SDS011;55930;47.412;8.790;2023-01-08T04:59:45;3.70;;;2.70;;
68888;SDS011;55930;47.412;8.790;2023-01-08T05:03:05;4.30;;;3.00;;
68888;SDS011;55930;47.412;8.790;2023-01-08T05:06:26;4.53;;;3.40;;
68888;SDS011;55930;47.412;8.790;2023-01-08T05:09:48;3.45;;;2.70;;
68888;SDS011;55930;47.412;8.790;2023-01-08T05:13:08;5.93;;;3.30;;
68888;SDS011;55930;47.412;8.790;2023-01-08T05:16:31;5.27;;;3.33;;
68888;SDS011;55930;47.412;8.790;2023-01-08T05:19:51;3.72;;;3.17;;
68888;SDS011;55930;47.412;8.790;2023-01-08T05:23:12;4.03;;;3.20;;
68888;SDS011;55930;47.412;8.790;2023-01-08T05:26:32;4.63;;;3.40;;
68888;SDS011;55930;47.412;8.790;2023-01-08T05:29:53;3.60;;;2.80;;
68888;SDS011;55930;47.412;8.790;2023-01-08T05:33:21;5.78;;;2.83;;
68888;SDS011;55930;47.412;8.790;2023-01-08T05:36:42;3.58;;;2.60;;
68888;SDS011;55930;47.412;8.790;2023-01-08T05:40:25;6.38;;;2.97;;
68888;SDS011;55930;47.412;8.790;2023-01-08T05:43:46;3.53;;;2.63;;
68888;SDS011;55930;47.412;8.790;2023-01-08T05:47:06;3.97;;;2.63;;
68888;SDS011;55930;47.412;8.790;2023-01-08T05:50:27;3.67;;;2.70;;
68888;SDS011;55930;47.412;8.790;2023-01-08T05:53:47;10.33;;;3.20;;
68888;SDS011;55930;47.412;8.790;2023-01-08T05:57:08;6.10;;;2.77;;
68888;SDS011;55930;47.412;8.790;2023-01-08T06:00:28;3.90;;;2.63;;
68888;SDS011;55930;47.412;8.790;2023-01-08T06:03:49;3.47;;;2.80;;
68888;SDS011;55930;47.412;8.790;2023-01-08T06:07:09;6.03;;;2.80;;
68888;SDS011;55930;47.412;8.790;2023-01-08T06:10:30;4.97;;;2.73;;
68888;SDS011;55930;47.412;8.790;2023-01-08T06:13:50;6.03;;;3.10;;
68888;SDS011;55930;47.412;8.790;2023-01-08T06:17:13;4.57;;;2.75;;
68888;SDS011;55930;47.412;8.790;2023-01-08T06:20:36;4.50;;;3.03;;
68888;SDS011;55930;47.412;8.790;2023-01-08T06:23:57;4.13;;;2.95;;
68888;SDS011;55930;47.412;8.790;2023-01-08T06:27:17;4.73;;;2.97;;
68888;SDS011;55930;47.412;8.790;2023-01-08T06:30:37;4.87;;;2.77;;
68888;SDS011;55930;47.412;8.790;2023-01-08T06:33:58;5.30;;;2.93;;
68888;SDS011;55930;47.412;8.790;2023-01-08T06:37:18;4.03;;;2.90;;
68888;SDS011;55930;47.412;8.790;2023-01-08T06:40:39;4.53;;;2.83;;
68888;SDS011;55930;47.412;8.790;2023-01-08T06:43:59;4.43;;;3.20;;
68888;SDS011;55930;47.412;8.790;2023-01-08T06:47:20;3.53;;;2.80;;
68888;SDS011;55930;47.412;8.790;2023-01-08T06:50:40;6.07;;;3.07;;
68888;SDS011;55930;47.412;8.790;2023-01-08T06:54:01;7.40;;;3.73;;
68888;SDS011;55930;47.412;8.790;2023-01-08T06:57:21;4.45;;;2.90;;
68888;SDS011;55930;47.412;8.790;2023-01-08T07:00:42;3.70;;;2.90;;
68888;SDS011;55930;47.412;8.790;2023-01-08T07:04:02;4.93;;;2.73;;
68888;SDS011;55930;47.412;8.790;2023-01-08T07:07:23;6.10;;;3.33;;
68888;SDS011;55930;47.412;8.790;2023-01-08T07:10:45;4.32;;;3.33;;
68888;SDS011;55930;47.412;8.790;2023-01-08T07:14:08;5.88;;;3.30;;
68888;SDS011;55930;47.412;8.790;2023-01-08T07:17:30;5.00;;;2.80;;
68888;SDS011;55930;47.412;8.790;2023-01-08T07:20:52;5.10;;;2.95;;
68888;SDS011;55930;47.412;8.790;2023-01-08T07:24:12;4.63;;;2.97;;
68888;SDS011;55930;47.412;8.790;2023-01-08T07:27:33;3.60;;;2.63;;
68888;SDS011;55930;47.412;8.790;2023-01-08T07:30:53;5.67;;;2.83;;
68888;SDS011;55930;47.412;8.790;2023-01-08T07:34:13;4.03;;;2.67;;
68888;SDS011;55930;47.412;8.790;2023-01-08T07:37:39;3.90;;;2.78;;
68888;SDS011;55930;47.412;8.790;2023-01-08T07:41:00;4.75;;;2.95;;
68888;SDS011;55930;47.412;8.790;2023-01-08T07:44:21;5.33;;;3.10;;
68888;SDS011;55930;47.412;8.790;2023-01-08T07:47:41;4.57;;;2.83;;
68888;SDS011;55930;47.412;8.790;2023-01-08T07:51:02;3.23;;;2.60;;
68888;SDS011;55930;47.412;8.790;2023-01-08T07:54:24;5.50;;;2.97;;
68888;SDS011;55930;47.412;8.790;2023-01-08T07:57:44;4.13;;;2.83;;
68888;SDS011;55930;47.412;8.790;2023-01-08T08:01:07;5.40;;;2.77;;
68888;SDS011;55930;47.412;8.790;2023-01-08T08:04:29;4.97;;;3.40;;
68888;SDS011;55930;47.412;8.790;2023-01-08T08:07:49;5.83;;;3.00;;
68888;SDS011;55930;47.412;8.790;2023-01-08T08:11:12;5.00;;;3.97;;
68888;SDS011;55930;47.412;8.790;2023-01-08T08:14:33;30.60;;;16.50;;
68888;SDS011;55930;47.412;8.790;2023-01-08T08:17:53;18.90;;;10.57;;
68888;SDS011;55930;47.412;8.790;2023-01-08T08:21:14;6.07;;;4.40;;
68888;SDS011;55930;47.412;8.790;2023-01-08T08:24:34;4.00;;;2.87;;
68888;SDS011;55930;47.412;8.790;2023-01-08T08:27:55;4.50;;;3.43;;
68888;SDS011;55930;47.412;8.790;2023-01-08T08:31:17;5.15;;;2.80;;
68888;SDS011;55930;47.412;8.790;2023-01-08T08:34:38;5.23;;;3.10;;
68888;SDS011;55930;47.412;8.790;2023-01-08T08:37:59;5.43;;;2.88;;
68888;SDS011;55930;47.412;8.790;2023-01-08T08:41:20;5.27;;;3.10;;
68888;SDS011;55930;47.412;8.790;2023-01-08T08:44:40;4.83;;;2.90;;
68888;SDS011;55930;47.412;8.790;2023-01-08T08:48:00;4.73;;;2.93;;
68888;SDS011;55930;47.412;8.790;2023-01-08T08:51:21;4.97;;;3.27;;
68888;SDS011;55930;47.412;8.790;2023-01-08T08:54:41;5.07;;;3.13;;
68888;SDS011;55930;47.412;8.790;2023-01-08T08:58:03;5.53;;;3.37;;
68888;SDS011;55930;47.412;8.790;2023-01-08T09:01:25;5.35;;;3.45;;
68888;SDS011;55930;47.412;8.790;2023-01-08T09:04:45;7.03;;;3.80;;
68888;SDS011;55930;47.412;8.790;2023-01-08T09:08:05;5.33;;;3.17;;
68888;SDS011;55930;47.412;8.790;2023-01-08T09:11:28;5.03;;;3.95;;
68888;SDS011;55930;47.412;8.790;2023-01-08T09:14:48;4.80;;;3.50;;
68888;SDS011;55930;47.412;8.790;2023-01-08T09:18:10;6.88;;;4.32;;
68888;SDS011;55930;47.412;8.790;2023-01-08T09:21:31;10.60;;;7.30;;
68888;SDS011;55930;47.412;8.790;2023-01-08T09:24:51;9.33;;;6.87;;
68888;SDS011;55930;47.412;8.790;2023-01-08T09:28:14;9.32;;;4.93;;
68888;SDS011;55930;47.412;8.790;2023-01-08T09:31:36;7.18;;;4.88;;
68888;SDS011;55930;47.412;8.790;2023-01-08T09:34:56;5.73;;;3.67;;
68888;SDS011;55930;47.412;8.790;2023-01-08T09:38:16;4.83;;;3.67;;
68888;SDS011;55930;47.412;8.790;2023-01-08T09:41:45;7.88;;;5.40;;
68888;SDS011;55930;47.412;8.790;2023-01-08T09:45:08;6.88;;;4.78;;
68888;SDS011;55930;47.412;8.790;2023-01-08T09:48:36;4.80;;;3.38;;
68888;SDS011;55930;47.412;8.790;2023-01-08T09:52:03;5.20;;;3.83;;
68888;SDS011;55930;47.412;8.790;2023-01-08T09:55:23;7.33;;;3.93;;
68888;SDS011;55930;47.412;8.790;2023-01-08T10:02:13;6.68;;;4.70;;
68888;SDS011;55930;47.412;8.790;2023-01-08T10:05:44;5.65;;;3.70;;
68888;SDS011;55930;47.412;8.790;2023-01-08T10:09:04;4.53;;;3.57;;
68888;SDS011;55930;47.412;8.790;2023-01-08T10:12:26;4.53;;;3.50;;
68888;SDS011;55930;47.412;8.790;2023-01-08T10:15:49;9.30;;;3.33;;
68888;SDS011;55930;47.412;8.790;2023-01-08T10:19:09;4.47;;;2.90;;
68888;SDS011;55930;47.412;8.790;2023-01-08T10:22:31;3.73;;;2.60;;
68888;SDS011;55930;47.412;8.790;2023-01-08T10:25:57;4.72;;;4.25;;
68888;SDS011;55930;47.412;8.790;2023-01-08T10:29:19;11.73;;;10.10;;
68888;SDS011;55930;47.412;8.790;2023-01-08T10:32:44;13.73;;;9.97;;
68888;SDS011;55930;47.412;8.790;2023-01-08T10:36:07;11.98;;;8.50;;
68888;SDS011;55930;47.412;8.790;2023-01-08T10:39:32;9.38;;;6.45;;
68888;SDS011;55930;47.412;8.790;2023-01-08T10:46:25;9.48;;;6.43;;
68888;SDS011;55930;47.412;8.790;2023-01-08T10:49:50;7.93;;;5.22;;
68888;SDS011;55930;47.412;8.790;2023-01-08T10:53:22;6.93;;;4.40;;
68888;SDS011;55930;47.412;8.790;2023-01-08T10:56:44;8.60;;;4.47;;
68888;SDS011;55930;47.412;8.790;2023-01-08T11:00:04;5.03;;;4.03;;
68888;SDS011;55930;47.412;8.790;2023-01-08T11:03:30;5.57;;;3.97;;
68888;SDS011;55930;47.412;8.790;2023-01-08T11:06:51;5.68;;;3.97;;
68888;SDS011;55930;47.412;8.790;2023-01-08T11:10:27;4.78;;;3.38;;
68888;SDS011;55930;47.412;8.790;2023-01-08T11:13:50;4.30;;;2.72;;
68888;SDS011;55930;47.412;8.790;2023-01-08T11:17:16;4.80;;;3.00;;
68888;SDS011;55930;47.412;8.790;2023-01-08T11:20:36;4.77;;;2.87;;
68888;SDS011;55930;47.412;8.790;2023-01-08T11:24:20;4.15;;;2.72;;
68888;SDS011;55930;47.412;8.790;2023-01-08T11:27:46;4.28;;;3.10;;
68888;SDS011;55930;47.412;8.790;2023-01-08T11:31:22;6.00;;;3.13;;
68888;SDS011;55930;47.412;8.790;2023-01-08T11:38:15;4.70;;;2.90;;
68888;SDS011;55930;47.412;8.790;2023-01-08T12:03:38;3.72;;;2.83;;
68888;SDS011;55930;47.412;8.790;2023-01-08T12:10:37;4.20;;;2.80;;
68888;SDS011;55930;47.412;8.790;2023-01-08T12:21:21;3.70;;;2.63;;
68888;SDS011;55930;47.412;8.790;2023-01-08T12:35:26;3.60;;;2.13;;
68888;SDS011;55930;47.412;8.790;2023-01-08T12:38:52;3.45;;;2.40;;
68888;SDS011;55930;47.412;8.790;2023-01-08T12:42:20;4.20;;;2.10;;
68888;SDS011;55930;47.412;8.790;2023-01-08T12:45:45;4.72;;;2.20;;
68888;SDS011;55930;47.412;8.790;2023-01-08T12:49:10;4.32;;;2.35;;
68888;SDS011;55930;47.412;8.790;2023-01-08T12:52:38;3.20;;;2.10;;
68888;SDS011;55930;47.412;8.790;2023-01-08T12:56:03;5.35;;;2.40;;
68888;SDS011;55930;47.412;8.790;2023-01-08T12:59:45;4.40;;;2.40;;
68888;SDS011;55930;47.412;8.790;2023-01-08T13:03:10;6.20;;;2.83;;
68888;SDS011;55930;47.412;8.790;2023-01-08T13:06:36;3.92;;;2.65;;
68888;SDS011;55930;47.412;8.790;2023-01-08T13:10:17;5.03;;;1.98;;
68888;SDS011;55930;47.412;8.790;2023-01-08T13:13:43;4.75;;;2.20;;
68888;SDS011;55930;47.412;8.790;2023-01-08T13:17:05;3.28;;;2.30;;
68888;SDS011;55930;47.412;8.790;2023-01-08T13:20:38;3.75;;;2.03;;
68888;SDS011;55930;47.412;8.790;2023-01-08T13:24:06;3.33;;;2.20;;
68888;SDS011;55930;47.412;8.790;2023-01-08T13:27:40;3.03;;;1.80;;
68888;SDS011;55930;47.412;8.790;2023-01-08T13:31:37;3.53;;;2.50;;
68888;SDS011;55930;47.412;8.790;2023-01-08T13:34:47;4.13;;;3.03;;
68888;SDS011;55930;47.412;8.790;2023-01-08T13:38:19;4.70;;;3.33;;
68888;SDS011;55930;47.412;8.790;2023-01-08T13:45:03;4.43;;;3.20;;
68888;SDS011;55930;47.412;8.790;2023-01-08T13:48:26;4.68;;;2.90;;
68888;SDS011;55930;47.412;8.790;2023-01-08T13:51:48;6.80;;;3.83;;
68888;SDS011;55930;47.412;8.790;2023-01-08T13:55:13;4.78;;;3.25;;
68888;SDS011;55930;47.412;8.790;2023-01-08T13:58:49;5.07;;;3.20;;
68888;SDS011;55930;47.412;8.790;2023-01-08T14:02:23;4.50;;;3.42;;
68888;SDS011;55930;47.412;8.790;2023-01-08T14:05:51;6.55;;;4.28;;
68888;SDS011;55930;47.412;8.790;2023-01-08T14:09:18;4.50;;;3.53;;
68888;SDS011;55930;47.412;8.790;2023-01-08T14:12:40;4.30;;;3.22;;
68888;SDS011;55930;47.412;8.790;2023-01-08T14:16:02;4.68;;;2.95;;
68888;SDS011;55930;47.412;8.790;2023-01-08T14:19:25;3.67;;;2.42;;
68888;SDS011;55930;47.412;8.790;2023-01-08T14:22:46;5.78;;;2.75;;
68888;SDS011;55930;47.412;8.790;2023-01-08T14:26:06;4.00;;;3.10;;
68888;SDS011;55930;47.412;8.790;2023-01-08T14:29:33;4.03;;;2.42;;
68888;SDS011;55930;47.412;8.790;2023-01-08T14:32:56;3.58;;;2.20;;
68888;SDS011;55930;47.412;8.790;2023-01-08T14:36:20;3.58;;;2.40;;
68888;SDS011;55930;47.412;8.790;2023-01-08T14:39:44;3.33;;;2.10;;
68888;SDS011;55930;47.412;8.790;2023-01-08T14:43:11;3.70;;;2.50;;
68888;SDS011;55930;47.412;8.790;2023-01-08T14:46:34;2.75;;;1.77;;
68888;SDS011;55930;47.412;8.790;2023-01-08T14:49:57;2.28;;;1.65;;
68888;SDS011;55930;47.412;8.790;2023-01-08T14:53:27;3.00;;;1.77;;
68888;SDS011;55930;47.412;8.790;2023-01-08T14:56:49;4.03;;;2.03;;
68888;SDS011;55930;47.412;8.790;2023-01-08T15:00:14;3.13;;;2.08;;
68888;SDS011;55930;47.412;8.790;2023-01-08T15:03:38;3.58;;;2.10;;
68888;SDS011;55930;47.412;8.790;2023-01-08T15:07:14;7.47;;;2.63;;
68888;SDS011;55930;47.412;8.790;2023-01-08T15:10:40;3.60;;;2.30;;
68888;SDS011;55930;47.412;8.790;2023-01-08T15:14:01;2.92;;;1.92;;
68888;SDS011;55930;47.412;8.790;2023-01-08T15:17:32;2.83;;;2.30;;
68888;SDS011;55930;47.412;8.790;2023-01-08T15:20:52;3.80;;;2.07;;
68888;SDS011;55930;47.412;8.790;2023-01-08T15:27:39;6.38;;;2.35;;
68888;SDS011;55930;47.412;8.790;2023-01-08T15:31:01;4.00;;;2.30;;
68888;SDS011;55930;47.412;8.790;2023-01-08T15:34:22;3.83;;;2.30;;
68888;SDS011;55930;47.412;8.790;2023-01-08T15:37:42;5.20;;;2.57;;
68888;SDS011;55930;47.412;8.790;2023-01-08T15:41:03;3.80;;;2.90;;
68888;SDS011;55930;47.412;8.790;2023-01-08T15:44:24;4.20;;;2.70;;
68888;SDS011;55930;47.412;8.790;2023-01-08T15:47:44;4.88;;;3.05;;
68888;SDS011;55930;47.412;8.790;2023-01-08T15:51:05;7.28;;;3.40;;
68888;SDS011;55930;47.412;8.790;2023-01-08T15:54:30;5.20;;;2.88;;
68888;SDS011;55930;47.412;8.790;2023-01-08T15:57:50;3.93;;;3.37;;
68888;SDS011;55930;47.412;8.790;2023-01-08T16:01:11;5.40;;;3.47;;
68888;SDS011;55930;47.412;8.790;2023-01-08T16:04:32;4.83;;;3.47;;
68888;SDS011;55930;47.412;8.790;2023-01-08T16:07:52;6.57;;;3.87;;
68888;SDS011;55930;47.412;8.790;2023-01-08T16:11:13;4.27;;;3.60;;
68888;SDS011;55930;47.412;8.790;2023-01-08T16:14:33;6.07;;;4.17;;
68888;SDS011;55930;47.412;8.790;2023-01-08T16:17:57;6.25;;;4.80;;
68888;SDS011;55930;47.412;8.790;2023-01-08T16:24:38;4.87;;;3.30;;
68888;SDS011;55930;47.412;8.790;2023-01-08T16:28:00;6.40;;;4.73;;
68888;SDS011;55930;47.412;8.790;2023-01-08T16:31:21;5.22;;;4.03;;
68888;SDS011;55930;47.412;8.790;2023-01-08T16:34:41;5.53;;;3.97;;
68888;SDS011;55930;47.412;8.790;2023-01-08T16:38:02;4.50;;;3.47;;
68888;SDS011;55930;47.412;8.790;2023-01-08T16:41:22;4.93;;;3.37;;
68888;SDS011;55930;47.412;8.790;2023-01-08T16:44:43;6.17;;;3.23;;
68888;SDS011;55930;47.412;8.790;2023-01-08T16:48:05;3.50;;;3.17;;
68888;SDS011;55930;47.412;8.790;2023-01-08T16:51:26;5.30;;;3.60;;
68888;SDS011;55930;47.412;8.790;2023-01-08T16:54:47;6.23;;;3.50;;
68888;SDS011;55930;47.412;8.790;2023-01-08T16:58:07;4.37;;;3.60;;
68888;SDS011;55930;47.412;8.790;2023-01-08T17:01:28;3.43;;;3.07;;
68888;SDS011;55930;47.412;8.790;2023-01-08T17:04:48;5.47;;;4.00;;
68888;SDS011;55930;47.412;8.790;2023-01-08T17:08:09;8.20;;;4.17;;
68888;SDS011;55930;47.412;8.790;2023-01-08T17:11:34;4.95;;;3.50;;
68888;SDS011;55930;47.412;8.790;2023-01-08T17:14:55;4.07;;;3.10;;
68888;SDS011;55930;47.412;8.790;2023-01-08T17:18:15;3.50;;;3.00;;
68888;SDS011;55930;47.412;8.790;2023-01-08T17:21:36;3.53;;;2.57;;
68888;SDS011;55930;47.412;8.790;2023-01-08T17:24:56;5.10;;;3.00;;
68888;SDS011;55930;47.412;8.790;2023-01-08T17:28:16;4.60;;;3.70;;
68888;SDS011;55930;47.412;8.790;2023-01-08T17:31:39;10.35;;;7.63;;
68888;SDS011;55930;47.412;8.790;2023-01-08T17:35:00;9.97;;;8.97;;
68888;SDS011;55930;47.412;8.790;2023-01-08T17:38:25;9.35;;;7.72;;
68888;SDS011;55930;47.412;8.790;2023-01-08T17:41:46;13.32;;;11.82;;
68888;SDS011;55930;47.412;8.790;2023-01-08T17:45:25;18.20;;;15.15;;
68888;SDS011;55930;47.412;8.790;2023-01-08T17:48:45;14.33;;;11.17;;
68888;SDS011;55930;47.412;8.790;2023-01-08T17:52:05;13.80;;;10.63;;
68888;SDS011;55930;47.412;8.790;2023-01-08T17:55:28;14.20;;;12.10;;
68888;SDS011;55930;47.412;8.790;2023-01-08T17:58:49;15.40;;;12.37;;
68888;SDS011;55930;47.412;8.790;2023-01-08T18:02:10;12.40;;;8.50;;
68888;SDS011;55930;47.412;8.790;2023-01-08T18:05:32;11.05;;;9.07;;
68888;SDS011;55930;47.412;8.790;2023-01-08T18:08:53;13.93;;;10.57;;
68888;SDS011;55930;47.412;8.790;2023-01-08T18:12:13;10.87;;;9.60;;
68888;SDS011;55930;47.412;8.790;2023-01-08T18:15:36;10.52;;;8.73;;
68888;SDS011;55930;47.412;8.790;2023-01-08T18:18:56;11.63;;;8.47;;
68888;SDS011;55930;47.412;8.790;2023-01-08T18:22:18;22.00;;;17.00;;
68888;SDS011;55930;47.412;8.790;2023-01-08T18:25:39;13.90;;;12.40;;
68888;SDS011;55930;47.412;8.790;2023-01-08T18:32:20;9.37;;;6.70;;
68888;SDS011;55930;47.412;8.790;2023-01-08T18:35:45;9.40;;;6.25;;
68888;SDS011;55930;47.412;8.790;2023-01-08T18:39:05;14.23;;;10.83;;
68888;SDS011;55930;47.412;8.790;2023-01-08T18:42:26;11.33;;;9.20;;
68888;SDS011;55930;47.412;8.790;2023-01-08T18:45:46;9.60;;;7.60;;
68888;SDS011;55930;47.412;8.790;2023-01-08T18:49:07;10.50;;;8.10;;
68888;SDS011;55930;47.412;8.790;2023-01-08T18:52:27;6.63;;;4.73;;
68888;SDS011;55930;47.412;8.790;2023-01-08T18:55:48;5.55;;;4.00;;
68888;SDS011;55930;47.412;8.790;2023-01-08T18:59:09;5.63;;;3.60;;
68888;SDS011;55930;47.412;8.790;2023-01-08T19:02:30;8.98;;;5.05;;
68888;SDS011;55930;47.412;8.790;2023-01-08T19:05:56;5.45;;;3.10;;
68888;SDS011;55930;47.412;8.790;2023-01-08T19:09:19;5.40;;;3.03;;
68888;SDS011;55930;47.412;8.790;2023-01-08T19:12:40;5.45;;;3.65;;
68888;SDS011;55930;47.412;8.790;2023-01-08T19:16:04;6.90;;;3.30;;
68888;SDS011;55930;47.412;8.790;2023-01-08T19:19:26;5.65;;;3.80;;
68888;SDS011;55930;47.412;8.790;2023-01-08T19:26:07;4.43;;;2.92;;
68888;SDS011;55930;47.412;8.790;2023-01-08T19:29:28;4.60;;;3.10;;
68888;SDS011;55930;47.412;8.790;2023-01-08T19:32:48;3.77;;;2.57;;
68888;SDS011;55930;47.412;8.790;2023-01-08T19:36:12;4.72;;;3.20;;
68888;SDS011;55930;47.412;8.790;2023-01-08T19:39:35;4.10;;;2.90;;
68888;SDS011;55930;47.412;8.790;2023-01-08T19:42:55;3.87;;;2.60;;
68888;SDS011;55930;47.412;8.790;2023-01-08T19:46:37;6.20;;;3.58;;
68888;SDS011;55930;47.412;8.790;2023-01-08T19:49:57;11.10;;;7.87;;
68888;SDS011;55930;47.412;8.790;2023-01-08T19:53:20;8.50;;;5.70;;
68888;SDS011;55930;47.412;8.790;2023-01-08T19:56:40;7.13;;;4.82;;
68888;SDS011;55930;47.412;8.790;2023-01-08T20:00:01;6.70;;;5.13;;
68888;SDS011;55930;47.412;8.790;2023-01-08T20:03:22;8.20;;;6.20;;
68888;SDS011;55930;47.412;8.790;2023-01-08T20:06:45;5.70;;;3.35;;
68888;SDS011;55930;47.412;8.790;2023-01-08T20:10:06;4.50;;;3.13;;
68888;SDS011;55930;47.412;8.790;2023-01-08T20:13:29;4.38;;;3.30;;
68888;SDS011;55930;47.412;8.790;2023-01-08T20:20:10;4.13;;;3.23;;
68888;SDS011;55930;47.412;8.790;2023-01-08T20:23:31;4.67;;;3.47;;
68888;SDS011;55930;47.412;8.790;2023-01-08T20:26:53;4.10;;;3.17;;
68888;SDS011;55930;47.412;8.790;2023-01-08T20:30:14;4.27;;;3.13;;
68888;SDS011;55930;47.412;8.790;2023-01-08T20:33:34;6.13;;;3.03;;
68888;SDS011;55930;47.412;8.790;2023-01-08T20:36:55;4.00;;;3.25;;
68888;SDS011;55930;47.412;8.790;2023-01-08T20:40:18;5.25;;;3.50;;
68888;SDS011;55930;47.412;8.790;2023-01-08T20:43:39;3.70;;;3.10;;
68888;SDS011;55930;47.412;8.790;2023-01-08T20:47:00;5.03;;;3.22;;
68888;SDS011;55930;47.412;8.790;2023-01-08T20:50:20;3.60;;;2.43;;
68888;SDS011;55930;47.412;8.790;2023-01-08T20:53:41;3.70;;;2.85;;
68888;SDS011;55930;47.412;8.790;2023-01-08T20:57:02;4.57;;;2.80;;
68888;SDS011;55930;47.412;8.790;2023-01-08T21:00:22;4.03;;;3.13;;
68888;SDS011;55930;47.412;8.790;2023-01-08T21:03:45;6.70;;;4.68;;
68888;SDS011;55930;47.412;8.790;2023-01-08T21:07:07;5.75;;;4.30;;
68888;SDS011;55930;47.412;8.790;2023-01-08T21:10:27;7.97;;;5.63;;
68888;SDS011;55930;47.412;8.790;2023-01-08T21:13:50;10.02;;;6.75;;
68888;SDS011;55930;47.412;8.790;2023-01-08T21:17:11;9.57;;;6.50;;
68888;SDS011;55930;47.412;8.790;2023-01-08T21:20:33;9.50;;;6.63;;
68888;SDS011;55930;47.412;8.790;2023-01-08T21:23:54;6.77;;;5.23;;
68888;SDS011;55930;47.412;8.790;2023-01-08T21:27:16;5.25;;;3.47;;
68888;SDS011;55930;47.412;8.790;2023-01-08T21:30:36;6.70;;;3.43;;
68888;SDS011;55930;47.412;8.790;2023-01-08T21:33:58;5.13;;;2.97;;
68888;SDS011;55930;47.412;8.790;2023-01-08T21:40:39;7.53;;;3.33;;
68888;SDS011;55930;47.412;8.790;2023-01-08T21:44:00;6.60;;;3.97;;
68888;SDS011;55930;47.412;8.790;2023-01-08T21:47:39;8.18;;;5.00;;
68888;SDS011;55930;47.412;8.790;2023-01-08T21:51:00;5.10;;;3.80;;